sensor_id;sensor_type;location;lat;lon;timestamp;P1;durP1;ratioP1;P2;durP2;ratioP2
21430;SDS011;10876;49.038;10.608;2023-04-25T00:00:48;7.30;;;3.97;;
21430;SDS011;10876;49.038;10.608;2023-04-25T00:03:15;4.53;;;3.38;;
21430;SDS011;10876;49.038;10.608;2023-04-25T00:05:43;5.22;;;3.38;;
21430;SDS011;10876;49.038;10.608;2023-04-25T00:08:10;4.78;;;3.60;;
21430;SDS011;10876;49.038;10.608;2023-04-25T00:10:37;5.28;;;3.58;;
21430;SDS011;10876;49.038;10.608;2023-04-25T00:13:06;5.03;;;3.42;;
21430;SDS011;10876;49.038;10.608;2023-04-25T00:15:33;6.00;;;4.47;;
21430;SDS011;10876;49.038;10.608;2023-04-25T00:18:01;6.72;;;3.45;;
21430;SDS011;10876;49.038;10.608;2023-04-25T00:20:28;5.45;;;3.80;;
21430;SDS011;10876;49.038;10.608;2023-04-25T00:22:56;4.97;;;3.78;;
21430;SDS011;10876;49.038;10.608;2023-04-25T00:25:22;5.30;;;3.72;;
21430;SDS011;10876;49.038;10.608;2023-04-25T00:27:49;5.20;;;3.40;;
21430;SDS011;10876;49.038;10.608;2023-04-25T00:30:18;5.78;;;3.60;;
21430;SDS011;10876;49.038;10.608;2023-04-25T00:32:45;4.95;;;3.67;;
21430;SDS011;10876;49.038;10.608;2023-04-25T00:35:12;5.13;;;3.67;;
21430;SDS011;10876;49.038;10.608;2023-04-25T00:37:38;6.00;;;3.25;;
21430;SDS011;10876;49.038;10.608;2023-04-25T00:40:06;5.85;;;3.88;;
21430;SDS011;10876;49.038;10.608;2023-04-25T00:42:33;7.28;;;4.13;;
21430;SDS011;10876;49.038;10.608;2023-04-25T00:45:02;5.78;;;3.90;;
21430;SDS011;10876;49.038;10.608;2023-04-25T00:47:33;6.45;;;4.13;;
21430;SDS011;10876;49.038;10.608;2023-04-25T00:50:02;6.45;;;4.15;;
21430;SDS011;10876;49.038;10.608;2023-04-25T00:52:29;5.03;;;3.60;;
21430;SDS011;10876;49.038;10.608;2023-04-25T00:54:56;4.90;;;3.53;;
21430;SDS011;10876;49.038;10.608;2023-04-25T00:57:23;5.40;;;3.53;;
21430;SDS011;10876;49.038;10.608;2023-04-25T00:59:51;5.47;;;4.20;;
21430;SDS011;10876;49.038;10.608;2023-04-25T01:02:19;6.38;;;3.83;;
21430;SDS011;10876;49.038;10.608;2023-04-25T01:04:48;5.32;;;3.83;;
21430;SDS011;10876;49.038;10.608;2023-04-25T01:07:15;5.15;;;3.38;;
21430;SDS011;10876;49.038;10.608;2023-04-25T01:09:42;5.38;;;3.72;;
21430;SDS011;10876;49.038;10.608;2023-04-25T01:12:09;4.90;;;3.55;;
21430;SDS011;10876;49.038;10.608;2023-04-25T01:14:36;4.88;;;3.42;;
21430;SDS011;10876;49.038;10.608;2023-04-25T01:17:04;5.53;;;3.65;;
21430;SDS011;10876;49.038;10.608;2023-04-25T01:19:32;6.00;;;3.22;;
21430;SDS011;10876;49.038;10.608;2023-04-25T01:22:01;4.65;;;3.63;;
21430;SDS011;10876;49.038;10.608;2023-04-25T01:24:29;5.63;;;3.75;;
21430;SDS011;10876;49.038;10.608;2023-04-25T01:26:57;6.35;;;3.05;;
21430;SDS011;10876;49.038;10.608;2023-04-25T01:29:26;5.15;;;3.35;;
21430;SDS011;10876;49.038;10.608;2023-04-25T01:31:54;4.50;;;3.10;;
21430;SDS011;10876;49.038;10.608;2023-04-25T01:34:23;5.00;;;3.13;;
21430;SDS011;10876;49.038;10.608;2023-04-25T01:36:50;3.72;;;2.80;;
21430;SDS011;10876;49.038;10.608;2023-04-25T01:39:19;5.18;;;2.88;;
21430;SDS011;10876;49.038;10.608;2023-04-25T01:41:47;5.32;;;2.88;;
21430;SDS011;10876;49.038;10.608;2023-04-25T01:44:15;4.43;;;2.60;;
21430;SDS011;10876;49.038;10.608;2023-04-25T01:46:42;3.47;;;2.83;;
21430;SDS011;10876;49.038;10.608;2023-04-25T01:49:09;6.00;;;3.20;;
21430;SDS011;10876;49.038;10.608;2023-04-25T01:51:36;3.33;;;2.63;;
21430;SDS011;10876;49.038;10.608;2023-04-25T01:54:03;5.90;;;3.30;;
21430;SDS011;10876;49.038;10.608;2023-04-25T01:56:32;3.33;;;2.50;;
21430;SDS011;10876;49.038;10.608;2023-04-25T01:58:59;5.57;;;2.50;;
21430;SDS011;10876;49.038;10.608;2023-04-25T02:01:26;4.63;;;2.80;;
21430;SDS011;10876;49.038;10.608;2023-04-25T02:03:53;3.60;;;2.70;;
21430;SDS011;10876;49.038;10.608;2023-04-25T02:06:20;3.95;;;2.83;;
21430;SDS011;10876;49.038;10.608;2023-04-25T02:08:47;3.38;;;2.70;;
21430;SDS011;10876;49.038;10.608;2023-04-25T02:11:14;4.07;;;2.88;;
21430;SDS011;10876;49.038;10.608;2023-04-25T02:13:42;5.13;;;2.88;;
21430;SDS011;10876;49.038;10.608;2023-04-25T02:16:09;4.50;;;3.20;;
21430;SDS011;10876;49.038;10.608;2023-04-25T02:18:36;4.97;;;3.08;;
21430;SDS011;10876;49.038;10.608;2023-04-25T02:21:04;4.47;;;3.10;;
21430;SDS011;10876;49.038;10.608;2023-04-25T02:23:35;4.30;;;3.15;;
21430;SDS011;10876;49.038;10.608;2023-04-25T02:26:02;5.15;;;3.20;;
21430;SDS011;10876;49.038;10.608;2023-04-25T02:28:31;3.67;;;3.03;;
21430;SDS011;10876;49.038;10.608;2023-04-25T02:30:59;4.55;;;3.10;;
21430;SDS011;10876;49.038;10.608;2023-04-25T02:33:26;5.40;;;3.03;;
21430;SDS011;10876;49.038;10.608;2023-04-25T02:35:53;5.00;;;2.83;;
21430;SDS011;10876;49.038;10.608;2023-04-25T02:38:20;4.57;;;2.60;;
21430;SDS011;10876;49.038;10.608;2023-04-25T02:40:47;4.47;;;2.90;;
21430;SDS011;10876;49.038;10.608;2023-04-25T02:43:13;3.40;;;2.88;;
21430;SDS011;10876;49.038;10.608;2023-04-25T02:45:41;3.42;;;2.60;;
21430;SDS011;10876;49.038;10.608;2023-04-25T02:48:09;4.95;;;2.50;;
21430;SDS011;10876;49.038;10.608;2023-04-25T02:50:36;4.68;;;2.70;;
21430;SDS011;10876;49.038;10.608;2023-04-25T02:53:03;4.13;;;2.85;;
21430;SDS011;10876;49.038;10.608;2023-04-25T02:55:30;4.13;;;2.83;;
21430;SDS011;10876;49.038;10.608;2023-04-25T02:57:57;3.83;;;2.47;;
21430;SDS011;10876;49.038;10.608;2023-04-25T03:00:24;4.30;;;2.90;;
21430;SDS011;10876;49.038;10.608;2023-04-25T03:02:51;5.00;;;2.83;;
21430;SDS011;10876;49.038;10.608;2023-04-25T03:05:19;5.28;;;2.38;;
21430;SDS011;10876;49.038;10.608;2023-04-25T03:07:46;4.45;;;3.15;;
21430;SDS011;10876;49.038;10.608;2023-04-25T03:10:13;6.32;;;3.30;;
21430;SDS011;10876;49.038;10.608;2023-04-25T03:12:40;6.60;;;3.28;;
21430;SDS011;10876;49.038;10.608;2023-04-25T03:15:07;4.03;;;2.63;;
21430;SDS011;10876;49.038;10.608;2023-04-25T03:17:34;3.97;;;2.80;;
21430;SDS011;10876;49.038;10.608;2023-04-25T03:20:01;4.95;;;3.10;;
21430;SDS011;10876;49.038;10.608;2023-04-25T03:22:32;4.78;;;3.22;;
21430;SDS011;10876;49.038;10.608;2023-04-25T03:24:58;4.55;;;3.05;;
21430;SDS011;10876;49.038;10.608;2023-04-25T03:27:25;7.38;;;3.08;;
21430;SDS011;10876;49.038;10.608;2023-04-25T03:29:52;4.13;;;2.67;;
21430;SDS011;10876;49.038;10.608;2023-04-25T03:32:19;6.18;;;3.03;;
21430;SDS011;10876;49.038;10.608;2023-04-25T03:34:46;4.20;;;2.90;;
21430;SDS011;10876;49.038;10.608;2023-04-25T03:37:13;5.60;;;2.97;;
21430;SDS011;10876;49.038;10.608;2023-04-25T03:39:42;4.70;;;3.25;;
21430;SDS011;10876;49.038;10.608;2023-04-25T03:42:09;4.65;;;2.83;;
21430;SDS011;10876;49.038;10.608;2023-04-25T03:44:36;5.05;;;2.92;;
21430;SDS011;10876;49.038;10.608;2023-04-25T03:47:03;6.40;;;3.13;;
21430;SDS011;10876;49.038;10.608;2023-04-25T03:49:30;5.40;;;3.30;;
21430;SDS011;10876;49.038;10.608;2023-04-25T03:51:57;4.80;;;3.08;;
21430;SDS011;10876;49.038;10.608;2023-04-25T03:54:25;3.92;;;2.97;;
21430;SDS011;10876;49.038;10.608;2023-04-25T03:56:53;5.82;;;2.90;;
21430;SDS011;10876;49.038;10.608;2023-04-25T03:59:20;4.63;;;2.70;;
21430;SDS011;10876;49.038;10.608;2023-04-25T04:01:47;3.95;;;2.60;;
21430;SDS011;10876;49.038;10.608;2023-04-25T04:04:14;3.97;;;3.00;;
21430;SDS011;10876;49.038;10.608;2023-04-25T04:06:41;4.13;;;3.00;;
21430;SDS011;10876;49.038;10.608;2023-04-25T04:09:08;5.07;;;3.50;;
21430;SDS011;10876;49.038;10.608;2023-04-25T04:11:36;5.45;;;3.78;;
21430;SDS011;10876;49.038;10.608;2023-04-25T04:14:05;7.93;;;3.70;;
21430;SDS011;10876;49.038;10.608;2023-04-25T04:16:32;5.90;;;3.75;;
21430;SDS011;10876;49.038;10.608;2023-04-25T04:18:59;4.72;;;3.50;;
21430;SDS011;10876;49.038;10.608;2023-04-25T04:21:26;6.43;;;3.45;;
21430;SDS011;10876;49.038;10.608;2023-04-25T04:23:54;6.47;;;4.35;;
21430;SDS011;10876;49.038;10.608;2023-04-25T04:26:22;7.43;;;4.70;;
21430;SDS011;10876;49.038;10.608;2023-04-25T04:28:51;7.10;;;4.32;;
21430;SDS011;10876;49.038;10.608;2023-04-25T04:31:20;7.78;;;4.75;;
21430;SDS011;10876;49.038;10.608;2023-04-25T04:33:47;6.80;;;3.92;;
21430;SDS011;10876;49.038;10.608;2023-04-25T04:36:14;6.15;;;4.10;;
21430;SDS011;10876;49.038;10.608;2023-04-25T04:38:45;6.13;;;4.13;;
21430;SDS011;10876;49.038;10.608;2023-04-25T04:41:12;5.68;;;4.05;;
21430;SDS011;10876;49.038;10.608;2023-04-25T04:43:38;6.32;;;3.88;;
21430;SDS011;10876;49.038;10.608;2023-04-25T04:46:06;4.35;;;3.35;;
21430;SDS011;10876;49.038;10.608;2023-04-25T04:48:36;4.10;;;3.40;;
21430;SDS011;10876;49.038;10.608;2023-04-25T04:51:05;4.68;;;3.28;;
21430;SDS011;10876;49.038;10.608;2023-04-25T04:53:32;9.73;;;4.03;;
21430;SDS011;10876;49.038;10.608;2023-04-25T04:55:59;6.82;;;3.30;;
21430;SDS011;10876;49.038;10.608;2023-04-25T04:58:26;6.88;;;3.72;;
21430;SDS011;10876;49.038;10.608;2023-04-25T05:00:54;4.57;;;2.80;;
21430;SDS011;10876;49.038;10.608;2023-04-25T05:03:22;5.13;;;2.90;;
21430;SDS011;10876;49.038;10.608;2023-04-25T05:05:50;3.63;;;2.63;;
21430;SDS011;10876;49.038;10.608;2023-04-25T05:08:17;4.82;;;2.95;;
21430;SDS011;10876;49.038;10.608;2023-04-25T05:10:44;4.15;;;2.97;;
21430;SDS011;10876;49.038;10.608;2023-04-25T05:13:11;5.22;;;3.05;;
21430;SDS011;10876;49.038;10.608;2023-04-25T05:15:37;6.75;;;2.67;;
21430;SDS011;10876;49.038;10.608;2023-04-25T05:18:04;6.40;;;2.88;;
21430;SDS011;10876;49.038;10.608;2023-04-25T05:20:31;4.80;;;2.50;;
21430;SDS011;10876;49.038;10.608;2023-04-25T05:23:00;4.97;;;2.88;;
21430;SDS011;10876;49.038;10.608;2023-04-25T05:25:26;4.55;;;2.88;;
21430;SDS011;10876;49.038;10.608;2023-04-25T05:27:53;3.20;;;2.45;;
21430;SDS011;10876;49.038;10.608;2023-04-25T05:30:21;4.68;;;3.03;;
21430;SDS011;10876;49.038;10.608;2023-04-25T05:32:48;3.80;;;2.67;;
21430;SDS011;10876;49.038;10.608;2023-04-25T05:35:16;5.10;;;2.67;;
21430;SDS011;10876;49.038;10.608;2023-04-25T05:37:42;4.72;;;3.00;;
21430;SDS011;10876;49.038;10.608;2023-04-25T05:40:11;4.45;;;2.83;;
21430;SDS011;10876;49.038;10.608;2023-04-25T05:42:38;3.75;;;3.00;;
21430;SDS011;10876;49.038;10.608;2023-04-25T05:45:05;5.22;;;3.10;;
21430;SDS011;10876;49.038;10.608;2023-04-25T05:47:33;4.72;;;3.30;;
21430;SDS011;10876;49.038;10.608;2023-04-25T05:50:00;4.18;;;2.83;;
21430;SDS011;10876;49.038;10.608;2023-04-25T05:52:27;4.00;;;2.85;;
21430;SDS011;10876;49.038;10.608;2023-04-25T05:54:54;4.15;;;2.67;;
21430;SDS011;10876;49.038;10.608;2023-04-25T05:57:24;3.65;;;2.85;;
21430;SDS011;10876;49.038;10.608;2023-04-25T05:59:51;7.25;;;2.80;;
21430;SDS011;10876;49.038;10.608;2023-04-25T06:02:19;3.88;;;2.80;;
21430;SDS011;10876;49.038;10.608;2023-04-25T06:04:46;5.85;;;3.17;;
21430;SDS011;10876;49.038;10.608;2023-04-25T06:07:14;4.30;;;2.60;;
21430;SDS011;10876;49.038;10.608;2023-04-25T06:09:41;5.20;;;2.95;;
21430;SDS011;10876;49.038;10.608;2023-04-25T06:12:08;3.78;;;2.75;;
21430;SDS011;10876;49.038;10.608;2023-04-25T06:14:36;3.70;;;2.70;;
21430;SDS011;10876;49.038;10.608;2023-04-25T06:17:03;5.35;;;3.10;;
21430;SDS011;10876;49.038;10.608;2023-04-25T06:19:33;5.25;;;3.10;;
21430;SDS011;10876;49.038;10.608;2023-04-25T06:22:01;5.47;;;3.30;;
21430;SDS011;10876;49.038;10.608;2023-04-25T06:24:28;5.22;;;3.08;;
21430;SDS011;10876;49.038;10.608;2023-04-25T06:26:55;6.47;;;3.58;;
21430;SDS011;10876;49.038;10.608;2023-04-25T06:29:22;5.32;;;3.33;;
21430;SDS011;10876;49.038;10.608;2023-04-25T06:31:51;5.35;;;3.13;;
21430;SDS011;10876;49.038;10.608;2023-04-25T06:34:18;6.30;;;3.65;;
21430;SDS011;10876;49.038;10.608;2023-04-25T06:36:45;5.20;;;3.47;;
21430;SDS011;10876;49.038;10.608;2023-04-25T06:39:12;5.53;;;3.53;;
21430;SDS011;10876;49.038;10.608;2023-04-25T06:41:39;6.68;;;3.47;;
21430;SDS011;10876;49.038;10.608;2023-04-25T06:44:06;6.18;;;3.85;;
21430;SDS011;10876;49.038;10.608;2023-04-25T06:46:33;9.55;;;3.70;;
21430;SDS011;10876;49.038;10.608;2023-04-25T06:49:01;4.47;;;3.30;;
21430;SDS011;10876;49.038;10.608;2023-04-25T06:51:28;5.10;;;3.10;;
21430;SDS011;10876;49.038;10.608;2023-04-25T06:53:56;4.63;;;3.10;;
21430;SDS011;10876;49.038;10.608;2023-04-25T06:56:23;5.65;;;3.60;;
21430;SDS011;10876;49.038;10.608;2023-04-25T06:58:50;4.72;;;3.33;;
21430;SDS011;10876;49.038;10.608;2023-04-25T07:01:17;5.80;;;3.83;;
21430;SDS011;10876;49.038;10.608;2023-04-25T07:03:44;6.40;;;3.90;;
21430;SDS011;10876;49.038;10.608;2023-04-25T07:06:12;6.80;;;3.60;;
21430;SDS011;10876;49.038;10.608;2023-04-25T07:08:39;6.15;;;3.30;;
21430;SDS011;10876;49.038;10.608;2023-04-25T07:11:06;6.53;;;4.13;;
21430;SDS011;10876;49.038;10.608;2023-04-25T07:13:32;6.97;;;4.55;;
21430;SDS011;10876;49.038;10.608;2023-04-25T07:16:01;6.82;;;4.22;;
21430;SDS011;10876;49.038;10.608;2023-04-25T07:18:28;7.68;;;3.67;;
21430;SDS011;10876;49.038;10.608;2023-04-25T07:20:55;5.38;;;2.80;;
21430;SDS011;10876;49.038;10.608;2023-04-25T07:23:23;5.03;;;2.50;;
21430;SDS011;10876;49.038;10.608;2023-04-25T07:25:50;3.45;;;2.70;;
21430;SDS011;10876;49.038;10.608;2023-04-25T07:28:17;2.85;;;2.10;;
21430;SDS011;10876;49.038;10.608;2023-04-25T07:30:44;3.28;;;2.20;;
21430;SDS011;10876;49.038;10.608;2023-04-25T07:33:11;3.55;;;2.40;;
21430;SDS011;10876;49.038;10.608;2023-04-25T07:35:38;3.47;;;2.35;;
21430;SDS011;10876;49.038;10.608;2023-04-25T07:38:05;3.25;;;2.28;;
21430;SDS011;10876;49.038;10.608;2023-04-25T07:40:34;2.97;;;2.05;;
21430;SDS011;10876;49.038;10.608;2023-04-25T07:43:01;3.13;;;2.33;;
21430;SDS011;10876;49.038;10.608;2023-04-25T07:45:28;3.38;;;2.33;;
21430;SDS011;10876;49.038;10.608;2023-04-25T07:47:55;2.78;;;2.05;;
21430;SDS011;10876;49.038;10.608;2023-04-25T07:50:22;2.78;;;2.10;;
21430;SDS011;10876;49.038;10.608;2023-04-25T07:52:49;2.80;;;1.95;;
21430;SDS011;10876;49.038;10.608;2023-04-25T07:55:16;2.20;;;1.95;;
21430;SDS011;10876;49.038;10.608;2023-04-25T07:57:44;2.00;;;1.63;;
21430;SDS011;10876;49.038;10.608;2023-04-25T08:00:12;3.45;;;1.95;;
21430;SDS011;10876;49.038;10.608;2023-04-25T08:02:40;3.90;;;2.63;;
21430;SDS011;10876;49.038;10.608;2023-04-25T08:05:07;4.55;;;2.50;;
21430;SDS011;10876;49.038;10.608;2023-04-25T08:07:37;3.70;;;2.63;;
21430;SDS011;10876;49.038;10.608;2023-04-25T08:10:04;4.28;;;3.00;;
21430;SDS011;10876;49.038;10.608;2023-04-25T08:12:32;4.15;;;2.70;;
21430;SDS011;10876;49.038;10.608;2023-04-25T08:15:00;4.25;;;2.83;;
21430;SDS011;10876;49.038;10.608;2023-04-25T08:17:27;4.75;;;2.88;;
21430;SDS011;10876;49.038;10.608;2023-04-25T08:19:54;4.88;;;2.83;;
21430;SDS011;10876;49.038;10.608;2023-04-25T08:22:22;4.00;;;2.80;;
21430;SDS011;10876;49.038;10.608;2023-04-25T08:24:49;3.88;;;2.70;;
21430;SDS011;10876;49.038;10.608;2023-04-25T08:27:16;4.60;;;2.85;;
21430;SDS011;10876;49.038;10.608;2023-04-25T08:29:44;6.10;;;3.40;;
21430;SDS011;10876;49.038;10.608;2023-04-25T08:32:12;4.50;;;3.15;;
21430;SDS011;10876;49.038;10.608;2023-04-25T08:34:39;3.45;;;2.75;;
21430;SDS011;10876;49.038;10.608;2023-04-25T08:37:07;4.05;;;2.38;;
21430;SDS011;10876;49.038;10.608;2023-04-25T08:39:34;4.80;;;3.10;;
21430;SDS011;10876;49.038;10.608;2023-04-25T08:42:02;3.13;;;2.38;;
21430;SDS011;10876;49.038;10.608;2023-04-25T08:44:32;4.20;;;3.00;;
21430;SDS011;10876;49.038;10.608;2023-04-25T08:47:01;4.45;;;3.20;;
21430;SDS011;10876;49.038;10.608;2023-04-25T08:49:30;5.57;;;3.13;;
21430;SDS011;10876;49.038;10.608;2023-04-25T08:51:59;5.30;;;3.08;;
21430;SDS011;10876;49.038;10.608;2023-04-25T08:54:27;4.75;;;3.17;;
21430;SDS011;10876;49.038;10.608;2023-04-25T08:56:56;7.50;;;3.67;;
21430;SDS011;10876;49.038;10.608;2023-04-25T08:59:23;6.40;;;3.75;;
21430;SDS011;10876;49.038;10.608;2023-04-25T09:01:51;5.57;;;3.65;;
21430;SDS011;10876;49.038;10.608;2023-04-25T09:04:18;5.32;;;3.40;;
21430;SDS011;10876;49.038;10.608;2023-04-25T09:06:47;5.97;;;3.88;;
21430;SDS011;10876;49.038;10.608;2023-04-25T09:09:14;7.53;;;3.75;;
21430;SDS011;10876;49.038;10.608;2023-04-25T09:11:41;7.80;;;3.97;;
21430;SDS011;10876;49.038;10.608;2023-04-25T09:14:11;5.85;;;3.70;;
21430;SDS011;10876;49.038;10.608;2023-04-25T09:19:26;7.65;;;4.15;;
21430;SDS011;10876;49.038;10.608;2023-04-25T09:21:57;6.68;;;4.03;;
21430;SDS011;10876;49.038;10.608;2023-04-25T09:24:32;7.65;;;4.18;;
21430;SDS011;10876;49.038;10.608;2023-04-25T09:27:00;7.55;;;4.35;;
21430;SDS011;10876;49.038;10.608;2023-04-25T09:29:30;6.30;;;3.90;;
21430;SDS011;10876;49.038;10.608;2023-04-25T09:32:11;8.25;;;4.40;;
21430;SDS011;10876;49.038;10.608;2023-04-25T09:34:39;7.75;;;5.00;;
21430;SDS011;10876;49.038;10.608;2023-04-25T09:37:09;7.20;;;4.68;;
21430;SDS011;10876;49.038;10.608;2023-04-25T09:39:37;9.00;;;5.10;;
21430;SDS011;10876;49.038;10.608;2023-04-25T09:42:04;6.68;;;4.80;;
21430;SDS011;10876;49.038;10.608;2023-04-25T09:44:31;7.32;;;4.78;;
21430;SDS011;10876;49.038;10.608;2023-04-25T09:46:58;8.55;;;5.13;;
21430;SDS011;10876;49.038;10.608;2023-04-25T09:49:25;7.85;;;5.10;;
21430;SDS011;10876;49.038;10.608;2023-04-25T09:51:54;6.95;;;4.63;;
21430;SDS011;10876;49.038;10.608;2023-04-25T09:54:24;7.32;;;5.07;;
21430;SDS011;10876;49.038;10.608;2023-04-25T09:56:52;6.10;;;4.32;;
21430;SDS011;10876;49.038;10.608;2023-04-25T09:59:20;7.18;;;4.57;;
21430;SDS011;10876;49.038;10.608;2023-04-25T10:01:49;10.80;;;5.72;;
21430;SDS011;10876;49.038;10.608;2023-04-25T10:04:19;7.15;;;4.88;;
21430;SDS011;10876;49.038;10.608;2023-04-25T10:06:49;7.70;;;4.28;;
21430;SDS011;10876;49.038;10.608;2023-04-25T10:09:18;6.40;;;4.57;;
21430;SDS011;10876;49.038;10.608;2023-04-25T10:11:48;8.82;;;4.88;;
21430;SDS011;10876;49.038;10.608;2023-04-25T10:14:16;8.43;;;5.32;;
21430;SDS011;10876;49.038;10.608;2023-04-25T10:16:44;7.20;;;4.32;;
21430;SDS011;10876;49.038;10.608;2023-04-25T10:19:13;6.25;;;4.68;;
21430;SDS011;10876;49.038;10.608;2023-04-25T10:21:44;8.15;;;4.95;;
21430;SDS011;10876;49.038;10.608;2023-04-25T10:24:14;7.07;;;4.88;;
21430;SDS011;10876;49.038;10.608;2023-04-25T10:26:42;5.80;;;4.30;;
21430;SDS011;10876;49.038;10.608;2023-04-25T10:29:12;6.38;;;4.40;;
21430;SDS011;10876;49.038;10.608;2023-04-25T10:31:44;6.20;;;4.53;;
21430;SDS011;10876;49.038;10.608;2023-04-25T10:34:12;7.18;;;4.65;;
21430;SDS011;10876;49.038;10.608;2023-04-25T10:36:39;6.72;;;4.88;;
21430;SDS011;10876;49.038;10.608;2023-04-25T10:39:06;5.38;;;3.85;;
21430;SDS011;10876;49.038;10.608;2023-04-25T10:41:45;6.22;;;4.32;;
21430;SDS011;10876;49.038;10.608;2023-04-25T10:44:15;5.93;;;4.30;;
21430;SDS011;10876;49.038;10.608;2023-04-25T10:46:44;7.68;;;4.82;;
21430;SDS011;10876;49.038;10.608;2023-04-25T10:49:27;6.55;;;4.70;;
21430;SDS011;10876;49.038;10.608;2023-04-25T10:54:48;8.13;;;4.15;;
21430;SDS011;10876;49.038;10.608;2023-04-25T10:57:27;7.10;;;3.72;;
21430;SDS011;10876;49.038;10.608;2023-04-25T11:00:06;4.95;;;2.55;;
21430;SDS011;10876;49.038;10.608;2023-04-25T11:02:42;4.13;;;2.63;;
21430;SDS011;10876;49.038;10.608;2023-04-25T11:05:22;3.85;;;2.22;;
21430;SDS011;10876;49.038;10.608;2023-04-25T11:07:54;3.47;;;2.53;;
21430;SDS011;10876;49.038;10.608;2023-04-25T11:10:24;3.95;;;3.03;;
21430;SDS011;10876;49.038;10.608;2023-04-25T11:12:52;5.10;;;3.00;;
21430;SDS011;10876;49.038;10.608;2023-04-25T11:15:20;4.10;;;2.47;;
21430;SDS011;10876;49.038;10.608;2023-04-25T11:17:47;5.30;;;3.28;;
21430;SDS011;10876;49.038;10.608;2023-04-25T11:20:15;5.20;;;3.70;;
21430;SDS011;10876;49.038;10.608;2023-04-25T11:22:45;7.03;;;4.00;;
21430;SDS011;10876;49.038;10.608;2023-04-25T11:25:13;4.70;;;3.40;;
21430;SDS011;10876;49.038;10.608;2023-04-25T11:27:51;4.20;;;3.08;;
21430;SDS011;10876;49.038;10.608;2023-04-25T11:30:21;3.47;;;2.83;;
21430;SDS011;10876;49.038;10.608;2023-04-25T11:32:49;4.50;;;2.70;;
21430;SDS011;10876;49.038;10.608;2023-04-25T11:35:17;5.72;;;3.42;;
21430;SDS011;10876;49.038;10.608;2023-04-25T11:37:44;5.65;;;2.92;;
21430;SDS011;10876;49.038;10.608;2023-04-25T11:40:11;5.18;;;3.20;;
21430;SDS011;10876;49.038;10.608;2023-04-25T11:42:39;4.07;;;2.78;;
21430;SDS011;10876;49.038;10.608;2023-04-25T11:45:09;4.80;;;3.30;;
21430;SDS011;10876;49.038;10.608;2023-04-25T11:47:38;6.13;;;4.47;;
21430;SDS011;10876;49.038;10.608;2023-04-25T11:50:05;5.72;;;3.70;;
21430;SDS011;10876;49.038;10.608;2023-04-25T11:52:37;6.28;;;3.47;;
21430;SDS011;10876;49.038;10.608;2023-04-25T11:55:06;4.75;;;3.50;;
21430;SDS011;10876;49.038;10.608;2023-04-25T11:57:34;4.75;;;3.20;;
21430;SDS011;10876;49.038;10.608;2023-04-25T12:00:05;4.57;;;3.20;;
21430;SDS011;10876;49.038;10.608;2023-04-25T12:02:35;5.22;;;3.10;;
21430;SDS011;10876;49.038;10.608;2023-04-25T12:05:04;5.72;;;3.50;;
21430;SDS011;10876;49.038;10.608;2023-04-25T12:07:33;4.95;;;2.72;;
21430;SDS011;10876;49.038;10.608;2023-04-25T12:10:04;3.78;;;2.53;;
21430;SDS011;10876;49.038;10.608;2023-04-25T12:12:32;5.93;;;2.95;;
21430;SDS011;10876;49.038;10.608;2023-04-25T12:15:07;3.05;;;2.40;;
21430;SDS011;10876;49.038;10.608;2023-04-25T12:17:36;5.60;;;2.95;;
21430;SDS011;10876;49.038;10.608;2023-04-25T12:20:09;4.82;;;2.50;;
21430;SDS011;10876;49.038;10.608;2023-04-25T12:22:37;4.43;;;2.30;;
21430;SDS011;10876;49.038;10.608;2023-04-25T12:25:10;4.28;;;2.47;;
21430;SDS011;10876;49.038;10.608;2023-04-25T12:27:37;6.05;;;2.67;;
21430;SDS011;10876;49.038;10.608;2023-04-25T12:30:05;5.28;;;2.50;;
21430;SDS011;10876;49.038;10.608;2023-04-25T12:32:33;3.38;;;2.42;;
21430;SDS011;10876;49.038;10.608;2023-04-25T12:35:00;6.22;;;2.67;;
21430;SDS011;10876;49.038;10.608;2023-04-25T12:37:30;3.22;;;2.38;;
21430;SDS011;10876;49.038;10.608;2023-04-25T12:39:57;4.05;;;2.60;;
21430;SDS011;10876;49.038;10.608;2023-04-25T12:42:24;3.15;;;2.35;;
21430;SDS011;10876;49.038;10.608;2023-04-25T12:44:51;5.03;;;2.70;;
21430;SDS011;10876;49.038;10.608;2023-04-25T12:47:18;4.72;;;2.35;;
21430;SDS011;10876;49.038;10.608;2023-04-25T12:49:45;3.60;;;2.35;;
21430;SDS011;10876;49.038;10.608;2023-04-25T12:52:12;6.97;;;2.50;;
21430;SDS011;10876;49.038;10.608;2023-04-25T12:54:40;5.40;;;2.50;;
21430;SDS011;10876;49.038;10.608;2023-04-25T12:57:07;5.75;;;2.38;;
21430;SDS011;10876;49.038;10.608;2023-04-25T12:59:34;4.47;;;2.70;;
21430;SDS011;10876;49.038;10.608;2023-04-25T13:02:01;4.97;;;2.20;;
21430;SDS011;10876;49.038;10.608;2023-04-25T13:04:28;3.47;;;2.25;;
21430;SDS011;10876;49.038;10.608;2023-04-25T13:06:55;3.55;;;2.30;;
21430;SDS011;10876;49.038;10.608;2023-04-25T13:09:22;7.13;;;1.92;;
21430;SDS011;10876;49.038;10.608;2023-04-25T13:11:50;3.58;;;1.75;;
21430;SDS011;10876;49.038;10.608;2023-04-25T13:14:17;3.50;;;1.80;;
21430;SDS011;10876;49.038;10.608;2023-04-25T13:16:44;2.00;;;1.50;;
21430;SDS011;10876;49.038;10.608;2023-04-25T13:19:11;2.85;;;1.52;;
21430;SDS011;10876;49.038;10.608;2023-04-25T13:21:37;5.22;;;1.70;;
21430;SDS011;10876;49.038;10.608;2023-04-25T13:24:05;4.47;;;1.80;;
21430;SDS011;10876;49.038;10.608;2023-04-25T13:26:32;3.08;;;1.73;;
21430;SDS011;10876;49.038;10.608;2023-04-25T13:29:00;3.40;;;1.92;;
21430;SDS011;10876;49.038;10.608;2023-04-25T13:31:28;3.67;;;1.90;;
21430;SDS011;10876;49.038;10.608;2023-04-25T13:33:57;4.55;;;2.17;;
21430;SDS011;10876;49.038;10.608;2023-04-25T13:36:24;2.80;;;1.98;;
21430;SDS011;10876;49.038;10.608;2023-04-25T13:38:53;4.90;;;2.10;;
21430;SDS011;10876;49.038;10.608;2023-04-25T13:41:20;4.10;;;2.13;;
21430;SDS011;10876;49.038;10.608;2023-04-25T13:43:46;3.38;;;2.33;;
21430;SDS011;10876;49.038;10.608;2023-04-25T13:46:15;4.03;;;2.08;;
21430;SDS011;10876;49.038;10.608;2023-04-25T13:48:42;3.47;;;2.28;;
21430;SDS011;10876;49.038;10.608;2023-04-25T13:51:14;3.97;;;2.03;;
21430;SDS011;10876;49.038;10.608;2023-04-25T13:53:42;3.72;;;2.50;;
21430;SDS011;10876;49.038;10.608;2023-04-25T13:56:09;4.53;;;2.30;;
21430;SDS011;10876;49.038;10.608;2023-04-25T13:58:37;6.55;;;2.65;;
21430;SDS011;10876;49.038;10.608;2023-04-25T14:01:04;4.18;;;2.53;;
21430;SDS011;10876;49.038;10.608;2023-04-25T14:03:32;4.75;;;2.90;;
21430;SDS011;10876;49.038;10.608;2023-04-25T14:05:59;5.95;;;2.35;;
21430;SDS011;10876;49.038;10.608;2023-04-25T14:08:26;6.35;;;3.20;;
21430;SDS011;10876;49.038;10.608;2023-04-25T14:10:53;3.63;;;2.17;;
21430;SDS011;10876;49.038;10.608;2023-04-25T14:13:20;4.25;;;2.50;;
21430;SDS011;10876;49.038;10.608;2023-04-25T14:15:48;5.13;;;2.50;;
21430;SDS011;10876;49.038;10.608;2023-04-25T14:18:16;4.72;;;2.42;;
21430;SDS011;10876;49.038;10.608;2023-04-25T14:20:45;4.05;;;2.55;;
21430;SDS011;10876;49.038;10.608;2023-04-25T14:23:12;4.00;;;2.45;;
21430;SDS011;10876;49.038;10.608;2023-04-25T14:25:40;4.00;;;2.45;;
21430;SDS011;10876;49.038;10.608;2023-04-25T14:28:08;4.85;;;2.45;;
21430;SDS011;10876;49.038;10.608;2023-04-25T14:30:35;6.07;;;2.83;;
21430;SDS011;10876;49.038;10.608;2023-04-25T14:33:02;4.30;;;2.70;;
21430;SDS011;10876;49.038;10.608;2023-04-25T14:35:30;4.03;;;2.40;;
21430;SDS011;10876;49.038;10.608;2023-04-25T14:37:58;4.80;;;2.38;;
21430;SDS011;10876;49.038;10.608;2023-04-25T14:40:25;6.10;;;2.47;;
21430;SDS011;10876;49.038;10.608;2023-04-25T14:42:53;6.60;;;3.65;;